• Join FlightAware (Why Join?)
  • Login
  • US Flag 
03:28AM EST


 

Airport Tracker/Info


-or-


 

Live Flight TrackerFlight Track Log ✈ UAL4257 ✈ 29-Apr-2013 ✈ MMMY / MTY - KIAH

Flight Track Log - Related Links

Times and Time Zones

All times are in EDT time to prevent confusion due to time zone crossing. See the UAL4257 flight status page for this flight to view local times or setup timezone preferences in your user account.

Time Position Orientation Groundspeed Altitude Reporting Facility
EDT Latitude Longitude Course Direction KTS MPH feet Rate Location/Type
12:46PM 26.2710 -99.5764 44° Northeast  Level Estimated
12:46PM 25.9714 -99.9514 44° Northeast 337 388 12,300  Level Houston Center
12:47PM 26.3440 -99.4972 44° Northeast  Level Estimated
12:47PM 26.0067 -99.8169 74° East 374 430 14,200  Level Houston Center
12:48PM 26.4169 -99.4179 44° Northeast  Level Estimated
12:48PM 26.0764 -99.7331 47° Northeast 371 427 15,600  Level Houston Center
12:49PM 26.4898 -99.3385 44° Northeast  Level Estimated
12:49PM 26.1478 -99.6472 47° Northeast 374 430 17,200  Level Houston Center
12:50PM 26.5627 -99.2591 44° Northeast  Level Estimated
12:50PM 26.2250 -99.5636 44° Northeast 381 438 18,700  Level Houston Center
12:51PM 26.6355 -99.1795 44° Northeast  Level Estimated
12:51PM 26.3069 -99.4825 42° Northeast 389 448 20,200  Level Houston Center
12:52PM 26.3922 -99.4022 40° Northeast 396 456 21,700 1,560 Climbing Houston Center
12:53PM 26.4933 -99.3033 41° Northeast 401 461 23,500 1,500 Climbing Houston Center
12:54PM 26.5772 -99.2181 42° Northeast 404 465 24,900 1,140 Climbing Houston Center
12:55PM 26.6644 -99.1333 41° Northeast 412 474 25,900 960 Climbing Houston Center
12:56PM 26.7558 -99.0433 41° Northeast 429 494 27,000 960 Climbing Houston Center
12:57PM 26.8469 -98.9519 42° Northeast 439 505 28,000 1,020 Climbing Houston Center
12:58PM 26.9569 -98.8428 41° Northeast 443 510 29,200 1,020 Climbing Houston Center
12:59PM 27.0503 -98.7478 42° Northeast 452 520 30,200 960 Climbing Houston Center
01:00PM 27.1444 -98.6525 42° Northeast 457 526 31,300 960 Climbing Houston Center
01:01PM 27.2403 -98.5556 42° Northeast 465 535 32,300 780 Climbing Houston Center
01:02PM 27.3378 -98.4581 42° Northeast 470 541 33,000 300 Climbing Houston Center
01:03PM 27.4600 -98.3350 42° Northeast 490 564 33,000  Level Houston Center
01:04PM 27.5636 -98.2317 41° Northeast 498 573 33,000  Level Houston Center
01:05PM 27.6661 -98.1269 42° Northeast 501 577 33,000  Level Houston Center
01:06PM 27.7672 -98.0228 42° Northeast 494 568 33,000  Level Houston Center
01:08PM 27.8694 -97.9200 42° Northeast 493 567 33,000  Level Houston Center
01:09PM 27.9908 -97.7950 42° Northeast 495 570 33,000  Level Houston Center
01:10PM 28.0853 -97.6986 42° Northeast 491 565 33,000  Level Houston Center
01:11PM 28.1875 -97.5942 42° Northeast 495 570 33,000  Level Houston Center
01:12PM 28.3086 -97.4694 42° Northeast 491 565 33,000  Level Houston Center
01:13PM 28.4086 -97.3656 42° Northeast 489 563 33,000  Level Houston Center
01:14PM 28.5086 -97.2614 42° Northeast 488 562 33,000 -60 Level Houston Center
01:15PM 28.6103 -97.1575 42° Northeast 491 565 32,900 -60 Descending Houston Center
01:16PM 28.7097 -97.0519 43° Northeast 490 564 32,900 -660 Level Houston Center
01:17PM 28.8100 -96.9472 42° Northeast 491 565 31,600 -1,860 Descending Houston Center
01:18PM 28.9258 -96.8253 43° Northeast 479 551 29,100 -2,520 Descending Houston Center
01:19PM 29.0200 -96.7264 43° Northeast 466 536 26,400 -2,880 Descending Houston Center
01:20PM 29.1153 -96.6250 43° Northeast 472 543 23,200 -3,120 Descending Houston Center
01:21PM 29.2072 -96.5278 43° Northeast 459 528 20,000 -3,240 Descending Houston Center
01:22PM 29.3119 -96.4172 43° Northeast 433 498 16,600 -2,940 Descending Houston Center
01:23PM 29.4053 -96.3189 43° Northeast 382 440 13,700 -2,460 Descending Houston Center
01:24PM 29.4681 -96.2503 44° Northeast 383 441 11,600 -1,920 Descending Houston Center
01:25PM 29.5417 -96.1694 44° Northeast 324 373 10,000 -840 Descending Houston Center
01:26PM 29.5850 -96.0878 59° Northeast 285 328 10,000 -660 Level Houston Center
01:27PM 29.6292 -95.9997 60° Northeast 290 334 8,700 -1,440 Descending Houston Center
01:28PM 29.6697 -95.9269 57° Northeast 273 314 7,100 -960 Descending Houston Center
01:29PM 29.7253 -95.8917 29° Northeast 236 272 7,000 -60 Descending Houston Center
01:30PM 29.7878 -95.8628 22° Northeast 245 282 7,000  Level Houston Center
01:31PM 29.8586 -95.8306 22° Northeast 249 287 7,000  Level Houston Center
01:32PM 29.9253 -95.8253 North 229 264 7,000 -360 Level Houston Center
01:33PM 29.9842 -95.8067 15° North 212 244 6,300 -540 Descending Houston Center
01:34PM 29.9942 -95.7519 78° East 178 205 6,000 -300 Descending Houston Center
01:35PM 29.9914 -95.6969 93° East 174 200 5,800 -600 Descending Houston Center
01:36PM 29.9919 -95.6317 89° East 175 201 4,800 -900 Descending Houston Center
01:37PM 29.9931 -95.5864 88° East 162 186 3,900 -900 Descending Houston Center
01:38PM 29.9914 -95.5306 92° East 162 186 3,000 -900 Descending Houston Center
01:39PM 29.9931 -95.4797 88° East 149 171 2,200 -840 Descending Houston Center
01:40PM 29.9925 -95.4267 91° East 152 175 1,300 -840 Descending Houston Center
01:41PM 29.9928 -95.3856 90° East 130 150 600 -420 Descending Houston Center
01:43PM 29.9933 -95.3381 89° East 146 168 400 -180 Descending Houston Center